sensor_id;sensor_type;location;lat;lon;timestamp;pressure;altitude;pressure_sealevel;temperature;humidity
69879;BME280;57161;43.136;24.706;2022-07-24T00:00:54;99015.66;;;24.79;46.67
69879;BME280;57161;43.136;24.706;2022-07-24T00:03:21;98977.28;;;24.50;46.64
69879;BME280;57161;43.136;24.706;2022-07-24T00:05:47;98990.34;;;24.55;46.83
69879;BME280;57161;43.136;24.706;2022-07-24T00:08:12;99013.66;;;24.66;46.90
69879;BME280;57161;43.136;24.706;2022-07-24T00:10:38;99015.31;;;24.55;47.26
69879;BME280;57161;43.136;24.706;2022-07-24T00:13:03;98995.91;;;24.36;47.26
69879;BME280;57161;43.136;24.706;2022-07-24T00:15:29;98995.00;;;24.31;47.38
69879;BME280;57161;43.136;24.706;2022-07-24T00:17:56;99006.59;;;24.35;47.61
69879;BME280;57161;43.136;24.706;2022-07-24T00:20:21;99009.28;;;24.31;47.60
69879;BME280;57161;43.136;24.706;2022-07-24T00:22:47;99014.06;;;24.27;47.89
69879;BME280;57161;43.136;24.706;2022-07-24T00:25:13;99008.88;;;24.23;47.78
69879;BME280;57161;43.136;24.706;2022-07-24T00:27:38;99008.63;;;24.17;47.83
69879;BME280;57161;43.136;24.706;2022-07-24T00:30:04;99004.38;;;24.02;48.21
69879;BME280;57161;43.136;24.706;2022-07-24T00:32:30;99003.56;;;24.00;48.18
69879;BME280;57161;43.136;24.706;2022-07-24T00:34:55;98997.94;;;24.02;48.26
69879;BME280;57161;43.136;24.706;2022-07-24T00:37:21;98990.19;;;23.88;48.46
69879;BME280;57161;43.136;24.706;2022-07-24T00:39:46;98978.53;;;23.82;48.49
69879;BME280;57161;43.136;24.706;2022-07-24T00:42:12;98994.06;;;23.79;48.88
69879;BME280;57161;43.136;24.706;2022-07-24T00:44:38;98999.47;;;23.73;48.82
69879;BME280;57161;43.136;24.706;2022-07-24T00:47:03;98994.78;;;23.64;49.05
69879;BME280;57161;43.136;24.706;2022-07-24T00:49:29;98969.72;;;23.47;49.05
69879;BME280;57161;43.136;24.706;2022-07-24T00:51:55;98984.34;;;23.55;49.61
69879;BME280;57161;43.136;24.706;2022-07-24T00:54:22;98995.22;;;23.58;49.18
69879;BME280;57161;43.136;24.706;2022-07-24T00:56:50;98992.81;;;23.53;49.56
69879;BME280;57161;43.136;24.706;2022-07-24T00:59:17;98983.97;;;23.47;49.56
69879;BME280;57161;43.136;24.706;2022-07-24T01:01:44;98926.94;;;23.01;49.48
69879;BME280;57161;43.136;24.706;2022-07-24T01:04:10;98981.44;;;23.39;49.77
69879;BME280;57161;43.136;24.706;2022-07-24T01:06:35;98987.97;;;23.42;49.61
69879;BME280;57161;43.136;24.706;2022-07-24T01:09:02;98976.72;;;23.44;49.42
69879;BME280;57161;43.136;24.706;2022-07-24T01:11:28;98976.13;;;23.31;49.58
69879;BME280;57161;43.136;24.706;2022-07-24T01:13:54;98971.06;;;23.30;49.15
69879;BME280;57161;43.136;24.706;2022-07-24T01:16:20;98958.09;;;23.27;48.73
69879;BME280;57161;43.136;24.706;2022-07-24T01:18:45;98953.59;;;23.38;48.89
69879;BME280;57161;43.136;24.706;2022-07-24T01:21:11;98959.97;;;23.52;48.61
69879;BME280;57161;43.136;24.706;2022-07-24T01:23:37;98953.19;;;23.59;48.15
69879;BME280;57161;43.136;24.706;2022-07-24T01:26:06;98962.59;;;23.61;47.74
69879;BME280;57161;43.136;24.706;2022-07-24T01:28:32;98962.03;;;23.65;48.17
69879;BME280;57161;43.136;24.706;2022-07-24T01:30:58;98953.56;;;23.67;47.86
69879;BME280;57161;43.136;24.706;2022-07-24T01:33:23;98960.84;;;23.70;47.76
69879;BME280;57161;43.136;24.706;2022-07-24T01:35:49;98958.53;;;23.67;47.88
69879;BME280;57161;43.136;24.706;2022-07-24T01:38:16;98962.03;;;23.65;47.93
69879;BME280;57161;43.136;24.706;2022-07-24T01:40:42;98961.13;;;23.60;48.18
69879;BME280;57161;43.136;24.706;2022-07-24T01:43:07;98949.03;;;23.46;48.18
69879;BME280;57161;43.136;24.706;2022-07-24T01:45:33;98958.59;;;23.53;48.05
69879;BME280;57161;43.136;24.706;2022-07-24T01:47:58;98970.72;;;23.53;48.06
69879;BME280;57161;43.136;24.706;2022-07-24T01:50:24;98956.44;;;23.38;48.46
69879;BME280;57161;43.136;24.706;2022-07-24T01:52:50;98961.88;;;23.31;48.98
69879;BME280;57161;43.136;24.706;2022-07-24T01:55:18;98954.16;;;23.34;49.15
69879;BME280;57161;43.136;24.706;2022-07-24T01:57:43;98955.44;;;23.31;49.22
69879;BME280;57161;43.136;24.706;2022-07-24T02:00:09;98963.47;;;23.21;49.39
69879;BME280;57161;43.136;24.706;2022-07-24T02:02:42;98945.78;;;23.09;49.78
69879;BME280;57161;43.136;24.706;2022-07-24T02:05:08;98951.50;;;23.09;49.96
69879;BME280;57161;43.136;24.706;2022-07-24T02:07:34;98956.81;;;23.00;50.15
69879;BME280;57161;43.136;24.706;2022-07-24T02:09:59;98947.66;;;22.88;50.49
69879;BME280;57161;43.136;24.706;2022-07-24T02:12:25;98961.81;;;22.86;50.51
69879;BME280;57161;43.136;24.706;2022-07-24T02:14:51;98944.81;;;22.74;50.53
69879;BME280;57161;43.136;24.706;2022-07-24T02:17:16;98947.91;;;22.65;50.81
69879;BME280;57161;43.136;24.706;2022-07-24T02:19:42;98945.06;;;22.51;50.90
69879;BME280;57161;43.136;24.706;2022-07-24T02:22:07;98950.34;;;22.57;50.97
69879;BME280;57161;43.136;24.706;2022-07-24T02:24:33;98942.31;;;22.53;51.05
69879;BME280;57161;43.136;24.706;2022-07-24T02:26:58;98944.00;;;22.44;51.16
69879;BME280;57161;43.136;24.706;2022-07-24T02:29:24;98939.19;;;22.47;50.97
69879;BME280;57161;43.136;24.706;2022-07-24T02:31:49;98947.19;;;22.51;51.17
69879;BME280;57161;43.136;24.706;2022-07-24T02:34:15;98937.91;;;22.50;50.87
69879;BME280;57161;43.136;24.706;2022-07-24T02:36:40;98938.84;;;22.55;51.07
69879;BME280;57161;43.136;24.706;2022-07-24T02:39:06;98935.16;;;22.52;50.85
69879;BME280;57161;43.136;24.706;2022-07-24T02:41:31;98942.31;;;22.53;50.98
69879;BME280;57161;43.136;24.706;2022-07-24T02:43:57;98943.59;;;22.50;51.16
69879;BME280;57161;43.136;24.706;2022-07-24T02:46:22;98942.66;;;22.45;51.50
69879;BME280;57161;43.136;24.706;2022-07-24T02:48:48;98922.94;;;22.36;51.47
69879;BME280;57161;43.136;24.706;2022-07-24T02:51:13;98930.75;;;22.35;51.54
69879;BME280;57161;43.136;24.706;2022-07-24T02:53:39;98915.16;;;22.23;51.32
69879;BME280;57161;43.136;24.706;2022-07-24T02:56:04;98934.97;;;22.34;51.19
69879;BME280;57161;43.136;24.706;2022-07-24T02:58:30;98928.44;;;22.32;51.32
69879;BME280;57161;43.136;24.706;2022-07-24T03:00:56;98927.72;;;22.31;51.45
69879;BME280;57161;43.136;24.706;2022-07-24T03:03:21;98907.78;;;22.17;51.59
69879;BME280;57161;43.136;24.706;2022-07-24T03:05:47;98906.53;;;22.07;51.73
69879;BME280;57161;43.136;24.706;2022-07-24T03:08:12;98922.56;;;22.14;52.07
69879;BME280;57161;43.136;24.706;2022-07-24T03:10:38;98920.44;;;22.14;51.77
69879;BME280;57161;43.136;24.706;2022-07-24T03:13:03;98920.22;;;22.24;51.28
69879;BME280;57161;43.136;24.706;2022-07-24T03:15:31;98926.63;;;22.25;51.49
69879;BME280;57161;43.136;24.706;2022-07-24T03:17:57;98931.78;;;22.28;51.04
69879;BME280;57161;43.136;24.706;2022-07-24T03:20:24;98926.53;;;22.36;50.88
69879;BME280;57161;43.136;24.706;2022-07-24T03:22:50;98912.50;;;22.40;50.72
69879;BME280;57161;43.136;24.706;2022-07-24T03:25:16;98909.66;;;22.40;50.98
69879;BME280;57161;43.136;24.706;2022-07-24T03:27:42;98916.41;;;22.47;50.93
69879;BME280;57161;43.136;24.706;2022-07-24T03:30:10;98900.19;;;22.36;51.00
69879;BME280;57161;43.136;24.706;2022-07-24T03:32:36;98923.16;;;22.40;50.90
69879;BME280;57161;43.136;24.706;2022-07-24T03:35:02;98917.47;;;22.40;51.27
69879;BME280;57161;43.136;24.706;2022-07-24T03:37:28;98911.97;;;22.44;51.23
69879;BME280;57161;43.136;24.706;2022-07-24T03:39:54;98915.78;;;22.35;51.36
69879;BME280;57161;43.136;24.706;2022-07-24T03:42:19;98910.09;;;22.35;51.69
69879;BME280;57161;43.136;24.706;2022-07-24T03:44:45;98909.78;;;22.29;51.24
69879;BME280;57161;43.136;24.706;2022-07-24T03:47:10;98919.66;;;22.41;51.10
69879;BME280;57161;43.136;24.706;2022-07-24T03:49:36;98911.28;;;22.30;51.45
69879;BME280;57161;43.136;24.706;2022-07-24T03:52:02;98922.22;;;22.35;51.62
69879;BME280;57161;43.136;24.706;2022-07-24T03:54:27;98922.63;;;22.43;51.18
69879;BME280;57161;43.136;24.706;2022-07-24T03:56:53;98918.81;;;22.53;51.17
69879;BME280;57161;43.136;24.706;2022-07-24T03:59:18;98917.00;;;22.59;50.64
69879;BME280;57161;43.136;24.706;2022-07-24T04:01:44;98925.88;;;22.65;50.74
69879;BME280;57161;43.136;24.706;2022-07-24T04:04:10;98922.13;;;22.76;50.50
69879;BME280;57161;43.136;24.706;2022-07-24T04:06:35;98919.28;;;22.76;50.36
69879;BME280;57161;43.136;24.706;2022-07-24T04:09:02;98924.69;;;22.84;50.26
69879;BME280;57161;43.136;24.706;2022-07-24T04:11:28;98931.63;;;22.81;50.60
69879;BME280;57161;43.136;24.706;2022-07-24T04:13:54;98930.75;;;22.92;50.22
69879;BME280;57161;43.136;24.706;2022-07-24T04:16:19;98920.41;;;22.99;50.32
69879;BME280;57161;43.136;24.706;2022-07-24T04:18:45;98929.25;;;23.05;50.14
69879;BME280;57161;43.136;24.706;2022-07-24T04:21:10;98928.81;;;23.11;50.10
69879;BME280;57161;43.136;24.706;2022-07-24T04:23:36;98926.53;;;23.23;49.84
69879;BME280;57161;43.136;24.706;2022-07-24T04:26:03;98941.38;;;23.35;49.59
69879;BME280;57161;43.136;24.706;2022-07-24T04:28:29;98936.16;;;23.45;49.56
69879;BME280;57161;43.136;24.706;2022-07-24T04:30:54;98931.63;;;23.56;49.26
69879;BME280;57161;43.136;24.706;2022-07-24T04:33:20;98934.91;;;23.64;49.32
69879;BME280;57161;43.136;24.706;2022-07-24T04:35:45;98930.38;;;23.75;49.11
69879;BME280;57161;43.136;24.706;2022-07-24T04:38:11;98942.25;;;23.85;48.99
69879;BME280;57161;43.136;24.706;2022-07-24T04:40:36;98940.53;;;23.93;48.85
69879;BME280;57161;43.136;24.706;2022-07-24T04:43:02;98943.25;;;23.91;48.74
69879;BME280;57161;43.136;24.706;2022-07-24T04:45:27;98936.28;;;23.94;48.97
69879;BME280;57161;43.136;24.706;2022-07-24T04:47:53;98923.59;;;23.98;48.62
69879;BME280;57161;43.136;24.706;2022-07-24T04:50:18;98929.09;;;24.09;48.68
69879;BME280;57161;43.136;24.706;2022-07-24T04:52:44;98947.13;;;24.30;48.41
69879;BME280;57161;43.136;24.706;2022-07-24T04:55:10;98929.88;;;24.28;47.94
69879;BME280;57161;43.136;24.706;2022-07-24T04:57:36;98944.31;;;24.47;47.97
69879;BME280;57161;43.136;24.706;2022-07-24T05:00:03;98938.22;;;24.55;47.98
69879;BME280;57161;43.136;24.706;2022-07-24T05:02:29;98934.31;;;24.64;47.83
69879;BME280;57161;43.136;24.706;2022-07-24T05:04:55;98952.53;;;24.73;47.84
69879;BME280;57161;43.136;24.706;2022-07-24T05:07:20;98944.56;;;24.87;47.74
69879;BME280;57161;43.136;24.706;2022-07-24T05:09:46;98947.56;;;25.07;47.54
69879;BME280;57161;43.136;24.706;2022-07-24T05:12:11;98948.75;;;25.20;47.33
69879;BME280;57161;43.136;24.706;2022-07-24T05:14:37;98945.56;;;25.29;46.86
69879;BME280;57161;43.136;24.706;2022-07-24T05:17:02;98950.44;;;25.62;46.65
69879;BME280;57161;43.136;24.706;2022-07-24T05:19:27;98934.72;;;25.81;46.26
69879;BME280;57161;43.136;24.706;2022-07-24T05:21:53;98947.28;;;26.12;45.98
69879;BME280;57161;43.136;24.706;2022-07-24T05:24:18;98935.69;;;26.08;45.80
69879;BME280;57161;43.136;24.706;2022-07-24T05:26:44;98940.53;;;26.23;45.45
69879;BME280;57161;43.136;24.706;2022-07-24T05:29:09;98944.34;;;26.29;45.55
69879;BME280;57161;43.136;24.706;2022-07-24T05:31:35;98943.66;;;26.31;45.48
69879;BME280;57161;43.136;24.706;2022-07-24T05:34:00;98942.94;;;26.30;45.25
69879;BME280;57161;43.136;24.706;2022-07-24T05:36:29;98917.41;;;26.17;45.19
69879;BME280;57161;43.136;24.706;2022-07-24T05:38:55;98935.81;;;26.31;45.38
69879;BME280;57161;43.136;24.706;2022-07-24T05:41:20;98943.19;;;26.37;45.78
69879;BME280;57161;43.136;24.706;2022-07-24T05:43:45;98935.53;;;26.43;45.90
69879;BME280;57161;43.136;24.706;2022-07-24T05:46:11;98923.47;;;26.47;46.01
69879;BME280;57161;43.136;24.706;2022-07-24T05:48:37;98946.97;;;26.63;46.02
69879;BME280;57161;43.136;24.706;2022-07-24T05:51:02;98931.53;;;26.72;45.68
69879;BME280;57161;43.136;24.706;2022-07-24T05:53:28;98930.53;;;26.85;45.85
69879;BME280;57161;43.136;24.706;2022-07-24T05:55:54;98940.00;;;26.90;45.98
69879;BME280;57161;43.136;24.706;2022-07-24T05:58:19;98942.31;;;26.96;45.70
69879;BME280;57161;43.136;24.706;2022-07-24T06:00:45;98940.66;;;27.10;45.80
69879;BME280;57161;43.136;24.706;2022-07-24T06:03:10;98930.25;;;26.99;45.65
69879;BME280;57161;43.136;24.706;2022-07-24T06:05:36;98935.84;;;27.17;45.03
69879;BME280;57161;43.136;24.706;2022-07-24T06:08:02;98926.19;;;27.28;45.00
69879;BME280;57161;43.136;24.706;2022-07-24T06:10:28;98948.16;;;27.43;45.24
69879;BME280;57161;43.136;24.706;2022-07-24T06:12:53;98939.72;;;27.49;44.82
69879;BME280;57161;43.136;24.706;2022-07-24T06:15:19;98934.13;;;27.54;44.53
69879;BME280;57161;43.136;24.706;2022-07-24T06:17:45;98946.31;;;27.76;44.24
69879;BME280;57161;43.136;24.706;2022-07-24T06:20:11;98924.84;;;27.79;44.35
69879;BME280;57161;43.136;24.706;2022-07-24T06:22:41;98943.16;;;27.92;44.35
69879;BME280;57161;43.136;24.706;2022-07-24T06:25:07;98939.13;;;28.01;44.25
69879;BME280;57161;43.136;24.706;2022-07-24T06:27:33;98936.78;;;28.19;44.21
69879;BME280;57161;43.136;24.706;2022-07-24T06:29:58;98935.09;;;28.36;44.26
69879;BME280;57161;43.136;24.706;2022-07-24T06:32:24;98944.25;;;28.56;43.00
69879;BME280;57161;43.136;24.706;2022-07-24T06:34:50;98940.75;;;28.60;42.95
69879;BME280;57161;43.136;24.706;2022-07-24T06:37:15;98937.31;;;28.65;42.79
69879;BME280;57161;43.136;24.706;2022-07-24T06:39:40;98946.22;;;28.78;42.87
69879;BME280;57161;43.136;24.706;2022-07-24T06:42:06;98942.28;;;28.91;42.46
69879;BME280;57161;43.136;24.706;2022-07-24T06:44:31;98939.31;;;29.17;41.80
69879;BME280;57161;43.136;24.706;2022-07-24T06:46:58;98941.97;;;29.39;41.92
69879;BME280;57161;43.136;24.706;2022-07-24T06:49:24;98939.53;;;29.57;41.88
69879;BME280;57161;43.136;24.706;2022-07-24T06:51:49;98937.31;;;29.87;41.40
69879;BME280;57161;43.136;24.706;2022-07-24T06:54:15;98924.91;;;30.13;40.40
69879;BME280;57161;43.136;24.706;2022-07-24T06:56:40;98935.72;;;30.53;36.89
69879;BME280;57161;43.136;24.706;2022-07-24T06:59:06;98936.28;;;30.83;35.53
69879;BME280;57161;43.136;24.706;2022-07-24T07:01:31;98942.91;;;31.36;34.16
69879;BME280;57161;43.136;24.706;2022-07-24T07:03:57;98926.19;;;31.77;32.65
69879;BME280;57161;43.136;24.706;2022-07-24T07:06:22;98947.53;;;32.08;31.73
69879;BME280;57161;43.136;24.706;2022-07-24T07:08:48;98939.84;;;32.31;31.87
69879;BME280;57161;43.136;24.706;2022-07-24T07:11:13;98943.69;;;32.53;31.05
69879;BME280;57161;43.136;24.706;2022-07-24T07:13:39;98949.56;;;32.62;31.16
69879;BME280;57161;43.136;24.706;2022-07-24T07:16:04;98944.63;;;32.74;30.33
69879;BME280;57161;43.136;24.706;2022-07-24T07:18:30;98952.09;;;33.00;30.17
69879;BME280;57161;43.136;24.706;2022-07-24T07:20:55;98948.59;;;33.11;30.37
69879;BME280;57161;43.136;24.706;2022-07-24T07:23:22;98939.31;;;33.29;30.30
69879;BME280;57161;43.136;24.706;2022-07-24T07:25:48;98943.75;;;33.38;30.13
69879;BME280;57161;43.136;24.706;2022-07-24T07:28:14;98945.25;;;33.52;29.76
69879;BME280;57161;43.136;24.706;2022-07-24T07:30:40;98944.59;;;33.59;30.07
69879;BME280;57161;43.136;24.706;2022-07-24T07:33:06;98939.63;;;33.78;29.84
69879;BME280;57161;43.136;24.706;2022-07-24T07:35:31;98929.47;;;33.81;29.23
69879;BME280;57161;43.136;24.706;2022-07-24T07:37:57;98947.69;;;33.98;29.74
69879;BME280;57161;43.136;24.706;2022-07-24T07:40:24;98947.78;;;34.18;29.16
69879;BME280;57161;43.136;24.706;2022-07-24T07:42:49;98955.09;;;34.34;28.08
69879;BME280;57161;43.136;24.706;2022-07-24T07:45:15;98942.75;;;34.35;27.03
69879;BME280;57161;43.136;24.706;2022-07-24T07:47:41;98944.25;;;34.36;26.67
69879;BME280;57161;43.136;24.706;2022-07-24T07:50:07;98944.25;;;34.36;26.66
69879;BME280;57161;43.136;24.706;2022-07-24T07:52:32;98944.97;;;34.41;27.48
69879;BME280;57161;43.136;24.706;2022-07-24T07:54:58;98934.09;;;34.39;27.42
69879;BME280;57161;43.136;24.706;2022-07-24T07:57:23;98937.03;;;34.55;26.89
69879;BME280;57161;43.136;24.706;2022-07-24T07:59:49;98935.59;;;34.73;27.36
69879;BME280;57161;43.136;24.706;2022-07-24T08:02:14;98929.81;;;34.87;26.34
69879;BME280;57161;43.136;24.706;2022-07-24T08:04:41;98937.06;;;35.04;26.94
69879;BME280;57161;43.136;24.706;2022-07-24T08:07:07;98941.41;;;35.11;26.33
69879;BME280;57161;43.136;24.706;2022-07-24T08:09:32;98946.50;;;35.17;26.15
69879;BME280;57161;43.136;24.706;2022-07-24T08:11:57;98937.03;;;35.25;26.17
69879;BME280;57161;43.136;24.706;2022-07-24T08:14:23;98941.38;;;35.30;26.07
69879;BME280;57161;43.136;24.706;2022-07-24T08:16:48;98945.75;;;35.35;26.04
69879;BME280;57161;43.136;24.706;2022-07-24T08:19:14;98943.56;;;35.45;25.70
69879;BME280;57161;43.136;24.706;2022-07-24T08:21:39;98941.41;;;35.44;26.09
69879;BME280;57161;43.136;24.706;2022-07-24T08:24:05;98934.84;;;35.56;24.93
69879;BME280;57161;43.136;24.706;2022-07-24T08:26:31;98937.00;;;35.61;24.88
69879;BME280;57161;43.136;24.706;2022-07-24T08:28:59;98952.16;;;35.94;24.95
69879;BME280;57161;43.136;24.706;2022-07-24T08:31:25;98946.97;;;36.17;24.75
69879;BME280;57161;43.136;24.706;2022-07-24T08:33:51;98926.75;;;35.93;24.32
69879;BME280;57161;43.136;24.706;2022-07-24T08:36:17;98958.66;;;36.07;24.55
69879;BME280;57161;43.136;24.706;2022-07-24T08:38:42;98942.72;;;35.98;24.73
69879;BME280;57161;43.136;24.706;2022-07-24T08:41:08;98941.19;;;36.13;24.85
69879;BME280;57161;43.136;24.706;2022-07-24T08:43:33;98943.31;;;36.21;25.18
69879;BME280;57161;43.136;24.706;2022-07-24T08:46:00;98960.03;;;36.32;24.95
69879;BME280;57161;43.136;24.706;2022-07-24T08:48:28;98920.84;;;36.15;24.15
69879;BME280;57161;43.136;24.706;2022-07-24T08:50:54;98948.31;;;36.43;24.70
69879;BME280;57161;43.136;24.706;2022-07-24T08:53:22;98946.81;;;36.50;24.52
69879;BME280;57161;43.136;24.706;2022-07-24T08:55:48;98941.03;;;36.48;24.46
69879;BME280;57161;43.136;24.706;2022-07-24T08:58:14;98946.06;;;36.53;25.06
69879;BME280;57161;43.136;24.706;2022-07-24T09:00:39;98941.66;;;36.60;24.64
69879;BME280;57161;43.136;24.706;2022-07-24T09:03:06;98939.50;;;36.57;24.37
69879;BME280;57161;43.136;24.706;2022-07-24T09:05:31;98937.25;;;36.67;24.78
69879;BME280;57161;43.136;24.706;2022-07-24T09:08:10;98930.56;;;36.87;24.88
69879;BME280;57161;43.136;24.706;2022-07-24T09:10:37;98930.44;;;37.02;24.50
69879;BME280;57161;43.136;24.706;2022-07-24T09:13:14;98928.13;;;37.18;24.63
69879;BME280;57161;43.136;24.706;2022-07-24T09:15:47;98918.75;;;37.08;24.04
69879;BME280;57161;43.136;24.706;2022-07-24T09:18:31;98924.47;;;37.18;24.33
69879;BME280;57161;43.136;24.706;2022-07-24T09:20:58;98912.72;;;37.32;24.17
69879;BME280;57161;43.136;24.706;2022-07-24T09:23:26;98916.25;;;37.41;24.40
69879;BME280;57161;43.136;24.706;2022-07-24T09:25:53;98929.91;;;37.61;23.99
69879;BME280;57161;43.136;24.706;2022-07-24T09:28:20;98923.94;;;37.73;23.41
69879;BME280;57161;43.136;24.706;2022-07-24T09:30:46;98922.63;;;37.58;22.88
69879;BME280;57161;43.136;24.706;2022-07-24T09:35:50;98925.00;;;37.43;22.13
69879;BME280;57161;43.136;24.706;2022-07-24T09:38:20;98925.78;;;37.35;21.98
69879;BME280;57161;43.136;24.706;2022-07-24T09:40:50;98926.69;;;37.15;21.11
69879;BME280;57161;43.136;24.706;2022-07-24T09:43:26;98925.19;;;37.20;21.26
69879;BME280;57161;43.136;24.706;2022-07-24T09:46:09;98922.97;;;37.27;21.32
69879;BME280;57161;43.136;24.706;2022-07-24T09:48:39;98914.13;;;37.37;20.68
69879;BME280;57161;43.136;24.706;2022-07-24T09:51:15;98908.28;;;37.37;20.74
69879;BME280;57161;43.136;24.706;2022-07-24T09:53:43;98911.09;;;37.47;20.44
69879;BME280;57161;43.136;24.706;2022-07-24T09:56:12;98912.28;;;37.71;20.24
69879;BME280;57161;43.136;24.706;2022-07-24T09:58:40;98912.97;;;37.77;19.99
69879;BME280;57161;43.136;24.706;2022-07-24T10:01:07;98909.13;;;37.91;20.21
69879;BME280;57161;43.136;24.706;2022-07-24T10:03:35;98913.41;;;38.00;20.76
69879;BME280;57161;43.136;24.706;2022-07-24T10:06:05;98912.09;;;37.87;20.20
69879;BME280;57161;43.136;24.706;2022-07-24T10:08:32;98926.72;;;37.83;20.26
69879;BME280;57161;43.136;24.706;2022-07-24T10:10:58;98922.25;;;37.92;19.92
69879;BME280;57161;43.136;24.706;2022-07-24T10:13:25;98925.03;;;38.02;19.39
69879;BME280;57161;43.136;24.706;2022-07-24T10:18:46;98916.22;;;38.08;19.98
69879;BME280;57161;43.136;24.706;2022-07-24T10:21:17;98918.75;;;38.37;20.06
69879;BME280;57161;43.136;24.706;2022-07-24T10:29:07;98911.97;;;37.97;19.67
69879;BME280;57161;43.136;24.706;2022-07-24T10:31:35;98909.59;;;38.12;19.76
69879;BME280;57161;43.136;24.706;2022-07-24T10:34:05;98916.81;;;38.17;20.18
69879;BME280;57161;43.136;24.706;2022-07-24T10:36:33;98922.66;;;38.19;20.06
69879;BME280;57161;43.136;24.706;2022-07-24T10:39:18;98912.63;;;38.04;20.10
69879;BME280;57161;43.136;24.706;2022-07-24T10:42:08;98909.09;;;37.95;20.63
69879;BME280;57161;43.136;24.706;2022-07-24T10:44:33;98916.09;;;38.19;20.98
69879;BME280;57161;43.136;24.706;2022-07-24T10:49:50;98911.28;;;37.95;20.87
69879;BME280;57161;43.136;24.706;2022-07-24T10:52:27;98911.09;;;38.09;20.93
69879;BME280;57161;43.136;24.706;2022-07-24T10:55:31;98900.81;;;38.14;20.76
69879;BME280;57161;43.136;24.706;2022-07-24T10:58:01;98899.38;;;38.13;21.31
69879;BME280;57161;43.136;24.706;2022-07-24T11:00:47;98909.34;;;38.32;21.23
69879;BME280;57161;43.136;24.706;2022-07-24T11:03:24;98898.28;;;38.41;21.35
69879;BME280;57161;43.136;24.706;2022-07-24T11:06:08;98896.94;;;38.32;21.11
69879;BME280;57161;43.136;24.706;2022-07-24T11:11:19;98894.66;;;38.38;21.15
69879;BME280;57161;43.136;24.706;2022-07-24T11:13:46;98885.28;;;38.32;21.79
69879;BME280;57161;43.136;24.706;2022-07-24T11:21:35;98874.56;;;38.14;20.64
69879;BME280;57161;43.136;24.706;2022-07-24T11:26:54;98888.84;;;38.36;21.13
69879;BME280;57161;43.136;24.706;2022-07-24T11:29:27;98878.09;;;38.25;20.93
69879;BME280;57161;43.136;24.706;2022-07-24T11:34:24;98870.41;;;37.99;20.53
69879;BME280;57161;43.136;24.706;2022-07-24T11:36:51;98869.00;;;37.96;20.07
69879;BME280;57161;43.136;24.706;2022-07-24T11:39:18;98874.66;;;38.08;20.23
69879;BME280;57161;43.136;24.706;2022-07-24T11:41:49;98877.09;;;38.42;20.32
69879;BME280;57161;43.136;24.706;2022-07-24T11:44:21;98877.75;;;38.47;19.43
69879;BME280;57161;43.136;24.706;2022-07-24T11:46:48;98863.28;;;38.39;20.10
69879;BME280;57161;43.136;24.706;2022-07-24T11:49:13;98858.16;;;38.41;20.29
69879;BME280;57161;43.136;24.706;2022-07-24T11:51:48;98864.41;;;38.60;19.85
69879;BME280;57161;43.136;24.706;2022-07-24T11:54:24;98861.59;;;38.52;19.87
69879;BME280;57161;43.136;24.706;2022-07-24T12:19:59;98838.31;;;38.93;19.90
69879;BME280;57161;43.136;24.706;2022-07-24T12:22:26;98846.16;;;39.03;19.55
69879;BME280;57161;43.136;24.706;2022-07-24T12:24:53;98838.97;;;38.98;19.38
69879;BME280;57161;43.136;24.706;2022-07-24T12:27:37;98861.63;;;38.95;19.42
69879;BME280;57161;43.136;24.706;2022-07-24T12:32:53;98828.97;;;38.85;19.44
69879;BME280;57161;43.136;24.706;2022-07-24T12:35:20;98847.59;;;39.04;20.16
69879;BME280;57161;43.136;24.706;2022-07-24T12:37:45;98830.25;;;38.96;20.01
69879;BME280;57161;43.136;24.706;2022-07-24T12:40:33;98828.03;;;38.96;20.15
69879;BME280;57161;43.136;24.706;2022-07-24T12:43:06;98817.38;;;39.20;19.59
69879;BME280;57161;43.136;24.706;2022-07-24T12:45:32;98819.09;;;39.09;19.79
69879;BME280;57161;43.136;24.706;2022-07-24T12:48:24;98822.75;;;39.07;19.87
69879;BME280;57161;43.136;24.706;2022-07-24T12:51:01;98828.63;;;39.03;19.85
69879;BME280;57161;43.136;24.706;2022-07-24T12:53:28;98820.53;;;39.10;20.09
69879;BME280;57161;43.136;24.706;2022-07-24T12:56:14;98817.25;;;38.87;20.26
69879;BME280;57161;43.136;24.706;2022-07-24T12:59:00;98797.88;;;39.10;20.31
69879;BME280;57161;43.136;24.706;2022-07-24T13:01:53;98816.53;;;39.27;20.11
69879;BME280;57161;43.136;24.706;2022-07-24T13:04:21;98810.94;;;39.13;19.91
69879;BME280;57161;43.136;24.706;2022-07-24T13:06:50;98804.34;;;39.15;20.09
69879;BME280;57161;43.136;24.706;2022-07-24T13:09:17;98792.91;;;39.38;19.94
69879;BME280;57161;43.136;24.706;2022-07-24T13:11:44;98798.66;;;39.44;20.08
69879;BME280;57161;43.136;24.706;2022-07-24T13:14:11;98796.41;;;39.46;19.54
69879;BME280;57161;43.136;24.706;2022-07-24T13:16:40;98772.31;;;39.46;19.81
69879;BME280;57161;43.136;24.706;2022-07-24T13:19:06;98777.44;;;39.45;19.70
69879;BME280;57161;43.136;24.706;2022-07-24T13:21:32;98783.31;;;39.43;19.85
69879;BME280;57161;43.136;24.706;2022-07-24T13:24:05;98781.38;;;39.31;20.03
69879;BME280;57161;43.136;24.706;2022-07-24T13:26:32;98774.84;;;39.29;19.72
69879;BME280;57161;43.136;24.706;2022-07-24T13:28:58;98765.75;;;39.10;20.05
69879;BME280;57161;43.136;24.706;2022-07-24T13:31:24;98757.56;;;39.17;20.78
69879;BME280;57161;43.136;24.706;2022-07-24T13:33:50;98757.91;;;39.36;19.93
69879;BME280;57161;43.136;24.706;2022-07-24T13:36:16;98754.94;;;39.38;19.90
69879;BME280;57161;43.136;24.706;2022-07-24T13:38:42;98747.88;;;39.26;19.81
69879;BME280;57161;43.136;24.706;2022-07-24T13:41:08;98744.91;;;39.28;20.23
69879;BME280;57161;43.136;24.706;2022-07-24T13:43:34;98745.59;;;39.31;20.64